EST,Max TemperatureF,Mean TemperatureF,Min TemperatureF,Max Dew PointF,MeanDew PointF,Min DewpointF,Max Humidity, Mean Humidity, Min Humidity, Max Sea Level PressureIn, Mean Sea Level PressureIn, Min Sea Level PressureIn, Max VisibilityMiles, Mean VisibilityMiles, Min VisibilityMiles, Max Wind SpeedMPH, Mean Wind SpeedMPH, Max Gust SpeedMPH,PrecipitationIn, CloudCover, Events, WindDirDegrees
2012-11-1,49,45,41,40,38,36,82,74,66,29.65,29.61,29.57,10,10,10,17,9,22,T,6,,251
2012-11-2,48,43,37,38,35,32,79,72,65,29.84,29.71,29.65,10,10,7,17,9,25,T,7,Rain,275
2012-11-3,48,44,40,32,29,26,70,62,53,30.03,29.92,29.83,10,10,10,22,11,29,0.00,8,,307
2012-11-4,44,38,31,31,28,26,75,65,55,30.04,30.02,30.00,10,10,10,15,9,22,0.00,6,,317
2012-11-5,42,37,32,27,25,22,70,59,48,30.20,30.09,30.03,10,10,10,16,9,21,0.00,8,,344
2012-11-6,43,33,22,26,22,19,88,66,44,30.25,30.18,30.10,10,10,10,10,3,14,0.00,1,,71
2012-11-7,42,36,30,30,25,18,69,58,47,30.07,29.95,29.86,10,10,4,21,11,28,T,5,Rain-Snow,17
2012-11-8,50,43,36,24,20,18,59,43,27,30.01,29.89,29.83,10,10,10,25,14,35,0.00,3,,328
2012-11-9,54,43,32,31,27,23,82,60,38,30.23,30.12,30.01,10,10,10,20,7,26,0.00,0,,316
2012-11-10,53,42,30,41,35,29,92,76,59,30.41,30.33,30.23,10,7,4,5,1,7,T,3,Rain,75
2012-11-11,66,52,37,47,42,34,93,69,44,30.50,30.45,30.40,10,6,2,9,2,12,0.00,2,,107
2012-11-12,67,53,38,57,49,37,96,80,63,30.45,30.33,30.13,10,7,3,18,7,24,T,2,Rain,138
2012-11-13,63,48,32,58,38,27,93,75,56,30.49,30.32,30.11,10,8,2,23,7,33,0.73,6,Rain,316
2012-11-14,48,39,30,27,24,21,78,57,36,30.56,30.50,30.47,10,10,10,14,5,18,0.00,1,,29
2012-11-15,46,38,29,29,26,21,85,65,45,30.47,30.40,30.32,10,10,10,13,3,16,0.00,0,,58
2012-11-16,51,41,30,30,27,23,92,67,42,30.47,30.36,30.32,10,10,10,8,1,12,0.00,0,,330
2012-11-17,53,39,25,31,27,22,92,67,41,30.65,30.58,30.48,10,10,10,14,2,16,0.00,0,,53
2012-11-18,49,37,25,35,29,24,92,74,56,30.68,30.63,30.57,10,9,5,8,3,12,0.00,1,,61
2012-11-19,51,38,25,34,29,24,100,75,50,30.56,30.43,30.26,10,8,4,13,3,16,0.00,1,,45
2012-11-20,51,40,28,35,30,25,92,71,50,30.24,30.18,30.12,10,10,7,7,1,8,0.00,0,,20
2012-11-21,55,41,26,32,28,25,92,65,38,30.25,30.21,30.16,10,10,7,8,2,15,0.00,0,,47
2012-11-22,57,40,23,33,27,21,92,62,32,30.30,30.23,30.15,10,10,6,6,1,7,0.00,0,,292
2012-11-23,59,42,24,37,31,22,92,66,40,30.14,29.92,29.72,10,8,4,18,4,29,T,3,,224
2012-11-24,47,41,35,26,22,20,64,53,41,29.91,29.82,29.76,10,10,10,29,13,41,T,6,,285
2012-11-25,40,33,26,22,21,18,81,64,47,29.99,29.94,29.90,10,10,10,18,9,25,T,6,,258
2012-11-26,48,37,26,26,22,21,81,59,37,30.26,30.12,29.98,10,10,10,16,6,21,0.00,2,,265
2012-11-27,36,32,27,34,31,24,100,85,70,30.28,30.24,30.20,10,4,0,9,1,10,0.27,8,Fog-Snow,49
2012-11-28,38,33,27,31,24,20,100,76,52,30.32,30.26,30.21,10,10,9,17,7,24,0.00,3,,274
2012-11-29,42,33,24,28,23,18,81,67,53,30.39,30.33,30.30,10,9,6,16,7,22,0.00,1,,247
2012-11-30,44,34,23,29,26,22,92,73,53,30.44,30.38,30.34,10,8,4,9,3,12,0.00,4,,66